Latest Weather Observations for Horsham

IDV60801

Issued at 8:32 am EST Monday 29 August 2016 (issued every 30 minutes, with the page automatically refreshed every 10 minutes)

About weather observations | Map of weather stations | Latest weather observations for VIC | Other Formats
Station Details ID: 079100 Name: HORSHAM AERODROME Lat: -36.67 Lon: 142.17 Height: 133.8 m
Data from the previous 72 hours. | See also: Recent months at Horsham
Date/Time
EST
Temp
°C
App
Temp
°C
Dew
Point
°C
Rel
Hum
%
Delta-T
°C
Wind Press
QNH
hPa
Press
MSL
hPa
Rain since
9am
mm
Dir  Spd
km/h
Gust
km/h
Spd
kts
Gust
kts
29/08:30am 10.2 4.3 6.0 75 1.9 NE 26 33 14 18 1021.8 1022.0 0.0
29/08:00am 7.3 1.9 4.6 83 1.2 ENE 22 30 12 16 1021.6 1021.8 0.0
29/07:30am 6.4 1.5 4.2 86 0.9 ENE 19 24 10 13 1021.7 1021.9 0.0
29/07:00am 5.6 0.4 3.8 88 0.8 ENE 20 24 11 13 1021.6 1021.8 0.0
29/06:30am 5.8 1.7 4.1 89 0.7 ENE 15 19 8 10 1021.2 1021.5 0.0
29/06:00am 6.1 1.6 4.3 88 0.8 ENE 17 22 9 12 1021.0 1021.3 0.0
29/05:30am 6.3 1.2 4.3 87 0.9 ENE 20 26 11 14 1020.8 1021.1 0.0
29/05:00am 5.8 0.9 4.1 89 0.7 ENE 19 20 10 11 1020.4 1020.7 0.0
29/04:30am 6.0 0.9 4.2 88 0.8 ENE 20 22 11 12 1020.2 1020.5 0.0
29/04:00am 5.9 1.3 3.9 87 0.8 NE 17 20 9 11 1020.3 1020.6 0.0
29/03:30am 5.8 0.9 4.0 88 0.8 ENE 19 20 10 11 1020.0 1020.3 0.0
29/03:00am 6.0 1.1 4.2 88 0.8 NE 19 20 10 11 1020.3 1020.6 0.0
29/02:30am 5.6 1.1 4.1 90 0.6 ENE 17 19 9 10 1020.4 1020.7 0.0
29/02:00am 6.0 1.1 4.3 89 0.7 ENE 19 26 10 14 1020.4 1020.7 0.0
29/01:30am 5.4 1.3 4.1 91 0.6 ENE 15 17 8 9 1020.6 1020.9 0.0
29/01:00am 6.3 1.9 4.6 89 0.7 ENE 17 20 9 11 1020.5 1020.8 0.0
29/12:30am 6.5 2.1 5.0 90 0.7 ENE 17 20 9 11 1020.4 1020.7 0.0
29/12:00am 7.2 3.0 5.7 90 0.7 NE 17 20 9 11 1020.3 1020.6 0.0
 
Date/Time
EST
Temp
°C
App
Temp
°C
Dew
Point
°C
Rel
Hum
%
Delta-T
°C
Wind Press
QNH
hPa
Press
MSL
hPa
Rain since
9am
mm
Dir  Spd
km/h
Gust
km/h
Spd
kts
Gust
kts
28/11:30pm 7.6 3.4 5.9 89 0.8 NE 17 20 9 11 1020.3 1020.6 0.0
28/11:00pm 7.7 3.0 6.0 89 0.8 ENE 20 24 11 13 1020.1 1020.4 0.0
28/10:30pm 7.4 3.2 5.7 89 0.8 ENE 17 19 9 10 1020.5 1020.8 0.0
28/10:00pm 7.8 4.3 5.4 85 1.1 ENE 13 15 7 8 1020.4 1020.7 0.0
28/09:30pm 9.3 4.8 6.0 80 1.5 ENE 19 20 10 11 1019.9 1020.2 0.0
28/09:00pm 10.5 6.1 6.5 76 1.9 ENE 19 20 10 11 1019.6 1019.9 0.0
28/08:30pm 10.9 6.4 6.1 72 2.3 ENE 19 22 10 12 1019.5 1019.8 0.0
28/08:00pm 10.4 5.9 6.2 75 2.0 ENE 19 20 10 11 1019.2 1019.4 0.0
28/07:30pm 10.8 6.7 6.4 74 2.1 NE 17 20 9 11 1019.1 1019.3 0.0
28/07:00pm 11.4 7.4 6.7 73 2.2 NE 17 19 9 10 1018.9 1019.1 0.0
28/06:30pm 12.3 8.0 7.2 71 2.5 NE 19 20 10 11 1018.5 1018.7 0.0
28/06:00pm 13.3 9.5 7.7 69 2.8 NE 17 19 9 10 1018.1 1018.3 0.0
28/05:30pm 15.1 11.9 8.6 65 3.3 NNE 15 17 8 9 1017.9 1018.1 0.0
28/05:00pm 16.7 12.5 7.6 55 4.6 N 19 22 10 12 1017.8 1018.0 0.0
28/04:30pm 17.8 14.4 7.5 51 5.2 NNE 15 19 8 10 1017.7 1017.9 0.0
28/04:00pm 16.9 14.2 8.8 59 4.2 N 13 17 7 9 1017.8 1018.0 0.0
28/03:30pm 17.6 14.0 6.8 49 5.4 N 15 19 8 10 1017.9 1018.1 0.0
28/03:00pm 18.3 13.0 5.2 42 6.4 N 22 28 12 15 1018.1 1018.3 0.0
28/02:30pm 18.7 14.9 5.9 43 6.3 N 15 22 8 12 1018.2 1018.4 0.0
28/02:00pm 18.6 13.7 5.1 41 6.6 N 20 28 11 15 1018.4 1018.6 0.0
28/01:30pm 17.9 12.9 4.8 42 6.3 N 20 28 11 15 1018.8 1019.0 0.0
28/01:00pm 17.6 12.0 5.2 44 6.0 N 24 30 13 16 1019.1 1019.3 0.0
28/12:30pm 18.2 13.7 6.1 45 6.0 N 19 24 10 13 1019.3 1019.5 0.0
28/12:00pm 16.7 14.2 8.4 58 4.2 NNE 11 19 6 10 1019.7 1020.0 0.0
28/11:30am 15.6 12.7 8.1 61 3.8 NNE 13 19 7 10 1019.9 1020.2 0.0
28/11:00am 14.3 11.2 7.1 62 3.5 NNE 13 17 7 9 1020.1 1020.4 0.0
28/10:30am 13.0 9.9 7.2 68 2.8 NE 13 17 7 9 1020.7 1021.0 0.0
28/10:00am 11.2 8.5 5.5 68 2.6 NE 9 13 5 7 1020.8 1021.1 0.0
28/09:30am 9.1 6.2 4.7 74 2.0 NE 9 13 5 7 1020.9 1021.2 0.0
28/09:00am 7.4 4.5 4.7 83 1.2 ENE 9 11 5 6 1020.8 1021.1 0.0
28/08:30am 5.5 2.4 3.8 89 0.7 ENE 9 11 5 6 1020.7 1021.0 0.0
28/08:00am 4.1 0.1 3.1 93 0.4 E 13 13 7 7 1020.5 1020.8 0.0
28/07:30am 3.5 -0.6 2.5 93 0.4 ENE 13 15 7 8 1020.4 1020.7 0.0
28/07:00am 2.8 -1.7 1.9 94 0.4 ENE 15 17 8 9 1020.3 1020.6 0.0
28/06:30am 2.8 -1.0 1.8 93 0.4 ENE 11 11 6 6 1019.8 1020.1 0.0
28/06:00am 3.0 -1.1 2.1 94 0.4 ENE 13 15 7 8 1019.4 1019.6 0.0
28/05:30am 2.4 -1.8 1.8 96 0.2 ENE 13 15 7 8 1019.3 1019.5 0.0
28/05:00am 2.0 -1.5 1.3 95 0.3 ESE 9 11 5 6 1018.9 1019.1 0.0
28/04:30am 2.8 -0.6 1.6 92 0.5 N 9 9 5 5 1018.8 1019.0 0.0
28/04:00am 2.8 -1.4 1.5 91 0.5 N 13 15 7 8 1019.0 1019.2 0.0
28/03:30am 2.7 -0.8 1.4 91 0.5 N 9 13 5 7 1018.7 1018.9 0.0
28/03:00am 3.0 -1.2 1.7 91 0.5 NNE 13 17 7 9 1018.8 1019.0 0.0
28/02:30am 2.8 -1.4 1.6 92 0.5 NNE 13 15 7 8 1019.3 1019.5 0.0
28/02:00am 2.7 -0.8 1.5 92 0.5 N 9 11 5 6 1019.6 1019.9 0.0
28/01:30am 2.9 -0.9 1.6 91 0.5 N 11 15 6 8 1019.7 1020.0 0.0
28/01:00am 3.1 -1.1 1.8 91 0.5 N 13 17 7 9 1019.7 1020.0 0.0
28/12:30am 3.4 -1.1 2.1 91 0.5 N 15 17 8 9 1019.7 1020.0 0.0
28/12:00am 4.1 -0.7 2.8 91 0.5 NNE 17 19 9 10 1019.6 1019.9 0.0
 
Date/Time
EST
Temp
°C
App
Temp
°C
Dew
Point
°C
Rel
Hum
%
Delta-T
°C
Wind Press
QNH
hPa
Press
MSL
hPa
Rain since
9am
mm
Dir  Spd
km/h
Gust
km/h
Spd
kts
Gust
kts
27/11:30pm 4.2 0.6 2.9 91 0.5 N 11 13 6 7 1019.8 1020.1 0.0
27/11:00pm 4.3 0.0 3.1 92 0.5 N 15 17 8 9 1019.8 1020.1 0.0
27/10:30pm 4.6 1.1 3.3 91 0.5 N 11 13 6 7 1020.0 1020.3 0.0
27/10:00pm 5.2 1.4 3.9 91 0.5 N 13 15 7 8 1019.9 1020.2 0.0
27/09:30pm 5.3 1.5 3.8 90 0.6 N 13 15 7 8 1020.1 1020.4 0.0
27/09:00pm 5.6 1.5 4.1 90 0.6 N 15 17 8 9 1020.1 1020.4 0.0
27/08:30pm 6.2 2.5 4.5 89 0.7 N 13 15 7 8 1020.2 1020.5 0.0
27/08:00pm 6.6 2.9 4.6 87 0.9 N 13 15 7 8 1019.8 1020.1 0.0
27/07:30pm 7.6 3.6 5.1 84 1.1 N 15 19 8 10 1019.8 1020.1 0.0
27/07:00pm 8.4 4.5 5.5 82 1.3 N 15 17 8 9 1019.4 1019.6 0.0
27/06:30pm 9.1 5.7 5.8 80 1.5 N 13 15 7 8 1019.2 1019.4 0.0
27/06:00pm 10.3 7.7 6.1 75 2.0 NNW 9 11 5 6 1019.1 1019.3 0.0
27/05:30pm 11.3 7.5 5.6 68 2.7 NW 15 17 8 9 1019.1 1019.3 0.0
27/05:00pm 12.7 7.0 5.1 60 3.5 NW 24 30 13 16 1018.9 1019.1 0.0
27/04:30pm 13.6 8.4 5.3 57 3.9 NW 22 28 12 15 1018.9 1019.1 0.0
27/04:00pm 13.7 8.8 5.3 57 3.9 NW 20 26 11 14 1018.9 1019.1 0.0
27/03:30pm 13.7 8.0 5.1 56 4.0 WNW 24 30 13 16 1019.1 1019.3 0.0
27/03:00pm 14.4 8.4 5.2 54 4.3 NW 26 32 14 17 1019.4 1019.6 0.0
27/02:30pm 14.5 8.2 5.6 55 4.2 WNW 28 43 15 23 1019.9 1020.2 0.0
27/02:00pm 14.0 8.0 5.1 55 4.2 NW 26 32 14 17 1020.0 1020.3 0.0
27/01:30pm 12.6 6.9 5.1 60 3.5 NW 24 32 13 17 1020.4 1020.7 0.0
27/01:00pm 12.7 6.8 5.8 63 3.3 NNW 26 33 14 18 1020.9 1021.2 0.0
27/12:30pm 12.3 6.2 5.0 61 3.4 NNW 26 35 14 19 1021.4 1021.6 0.0
27/12:00pm 12.1 5.8 5.5 64 3.1 NNW 28 37 15 20 1021.9 1022.1 0.0
27/11:30am 12.1 6.0 4.8 61 3.4 NNW 26 35 14 19 1022.3 1022.5 0.0
27/11:00am 12.0 6.0 5.2 63 3.1 NNW 26 32 14 17 1022.5 1022.7 0.0
27/10:30am 11.5 6.9 6.6 72 2.3 NNW 20 26 11 14 1022.8 1023.0 0.0
27/10:00am 10.4 5.7 6.0 74 2.0 NNW 20 24 11 13 1023.0 1023.2 0.0
27/09:30am 8.8 4.7 6.4 85 1.1 NNW 17 20 9 11 1023.2 1023.4 0.0
27/09:00am 7.5 3.8 6.1 91 0.6 N 15 20 8 11 1023.2 1023.4 0.0
27/08:30am 6.3 2.9 5.7 96 0.3 NNW 13 19 7 10 1023.0 1023.2 0.0
27/08:00am 4.1 0.3 4.0 99 0.0 N 13 17 7 9 1022.9 1023.1 0.0
27/07:30am 2.3 -1.1 2.0 98 0.1 N 9 13 5 7 1023.1 1023.3 0.0
27/07:00am 1.2 -2.7 0.9 98 0.1 N 11 13 6 7 1023.0 1023.2 0.0
27/06:30am 1.5 -2.8 1.1 97 0.2 NNW 13 13 7 7 1022.8 1023.0 0.0
27/06:00am 3.0 -0.6 2.7 98 0.1 NNW 11 15 6 8 1022.6 1022.8 0.0
27/05:30am 4.3 0.9 4.2 99 0.0 NW 11 13 6 7 1022.7 1022.9 0.0
27/05:00am 3.7 0.2 3.6 99 0.0 NW 11 13 6 7 1022.5 1022.7 0.0
27/04:30am 2.9 -1.1 2.8 99 0.0 NW 13 15 7 8 1022.3 1022.5 0.0
27/04:00am 2.0 -2.2 1.9 99 0.0 NW 13 13 7 7 1022.1 1022.3 0.0
27/03:30am 1.3 -2.6 1.0 98 0.1 NNW 11 13 6 7 1022.1 1022.3 0.0
27/03:00am 1.1 -4.0 0.8 98 0.1 N 17 17 9 9 1022.1 1022.3 0.0
27/02:35am 2.2 -1.6 1.9 98 0.1 N 11 13 6 7 1022.2 1022.4 0.0
27/02:30am 2.1 -1.7 1.8 98 0.1 N 11 13 6 7 1022.2 1022.4 0.0
27/02:00am 2.7 -0.3 2.1 96 0.2 NNW 7 9 4 5 1022.6 1022.8 0.0
27/01:45am 3.7 0.9 3.0 95 0.3 WNW 7 11 4 6 1022.8 1023.0 0.0
27/01:30am 5.1 2.2 4.4 95 0.3 W 9 11 5 6 1022.9 1023.1 0.0
27/01:00am 5.9 3.2 5.6 98 0.1 W 9 11 5 6 1022.9 1023.1 0.0
27/12:30am 4.7 1.7 4.3 97 0.2 WNW 9 11 5 6 1023.2 1023.4 0.0
27/12:00am 4.6 1.9 3.9 95 0.3 W 7 7 4 4 1023.2 1023.4 0.0
 
Date/Time
EST
Temp
°C
App
Temp
°C
Dew
Point
°C
Rel
Hum
%
Delta-T
°C
Wind Press
QNH
hPa
Press
MSL
hPa
Rain since
9am
mm
Dir  Spd
km/h
Gust
km/h
Spd
kts
Gust
kts
26/11:30pm 6.2 3.4 5.0 92 0.5 SW 9 9 5 5 1023.2 1023.4 0.0
26/11:00pm 7.0 4.3 5.5 90 0.7 W 9 11 5 6 1023.4 1023.6 0.0
26/10:30pm 8.2 5.3 6.3 88 0.9 WSW 11 15 6 8 1023.5 1023.7 0.0
26/10:00pm 8.4 6.0 7.0 91 0.7 W 9 11 5 6 1023.5 1023.7 0.0
26/09:30pm 9.2 6.8 6.8 85 1.1 W 9 11 5 6 1023.3 1023.5 0.0
26/09:00pm 9.3 6.4 6.6 83 1.3 W 11 15 6 8 1023.3 1023.5 0.0
26/08:30pm 9.2 6.4 6.8 85 1.1 W 11 15 6 8 1023.2 1023.4 0.0
26/08:00pm 9.2 6.4 6.8 85 1.1 WNW 11 13 6 7 1023.0 1023.2 0.0
26/07:30pm 9.5 7.0 6.6 82 1.4 WNW 9 13 5 7 1023.0 1023.2 0.0
26/07:00pm 9.2 6.7 6.6 84 1.2 NW 9 9 5 5 1022.7 1022.9 0.0
26/06:30pm 9.5 7.4 6.6 82 1.4 NW 7 7 4 4 1022.3 1022.5 0.0
26/06:00pm 10.7 9.0 5.9 72 2.2 W 4 6 2 3 1022.1 1022.3 0.0
26/05:30pm 11.1 8.4 5.4 68 2.6 SW 9 11 5 6 1022.0 1022.2 0.0
26/05:00pm 11.4 8.5 4.4 62 3.2 W 9 13 5 7 1021.8 1022.0 0.0
26/04:30pm 11.7 8.8 4.7 62 3.2 WSW 9 13 5 7 1021.7 1021.9 0.0
26/04:00pm 11.6 7.6 3.1 56 3.7 W 13 19 7 10 1021.7 1021.9 0.0
26/03:30pm 11.7 7.5 3.7 58 3.6 W 15 22 8 12 1022.0 1022.2 0.0
26/03:00pm 12.2 7.0 3.7 56 3.8 WSW 20 28 11 15 1021.9 1022.1 0.0
26/02:30pm 12.3 6.9 2.7 52 4.2 WSW 20 28 11 15 1022.2 1022.4 0.0
26/02:00pm 11.6 6.5 2.9 55 3.8 SW 19 28 10 15 1022.2 1022.4 0.0
26/01:30pm 11.3 7.0 3.3 58 3.5 W 15 24 8 13 1022.5 1022.7 0.0
26/01:00pm 11.3 7.2 4.3 62 3.2 W 15 20 8 11 1022.8 1023.0 0.0
26/12:30pm 10.7 6.0 3.3 60 3.3 WSW 17 24 9 13 1023.3 1023.5 0.0
26/12:00pm 10.6 6.3 3.4 61 3.2 WSW 15 20 8 11 1023.8 1024.0 0.0
26/11:30am 10.4 6.0 2.7 59 3.3 WSW 15 20 8 11 1023.9 1024.1 0.0
26/11:00am 10.0 7.3 3.7 65 2.8 SW 7 13 4 7 1023.9 1024.1 0.0
26/10:30am 8.5 6.4 6.0 84 1.1 SW 6 9 3 5 1023.9 1024.1 0.0
26/10:00am 6.5 4.3 5.1 91 0.6 WNW 6 7 3 4 1024.0 1024.2 0.0
26/09:30am 5.0 2.3 3.8 92 0.5 SW 7 9 4 5 1024.2 1024.4 0.0
26/09:00am 3.9 0.8 3.5 97 0.2 SW 9 11 5 6 1024.1 1024.3 0.2

Other Formats:

Comma delimited format used in spreadsheet applications
http://www.bom.gov.au/fwo/IDV60801/IDV60801.95839.axf

JavaScript Object Notation format (JSON) in row-major order
http://www.bom.gov.au/fwo/IDV60801/IDV60801.95839.json